Latest Coastal Weather Observations for Parndana

IDS60701

Issued at 9:31 am CST Thursday 30 July 2015 (issued every 10 minutes, with the page automatically refreshed every 10 minutes)

About coastal observations | Map of coastal stations | Coastal observations for SA | Marine services | Other Formats
Station Details ID: 022843 Name: PARNDANA CFS AWS Lat: -35.79 Lon: 137.25 Height: 165.0 m
Data from the previous 72 hours. | See also: Recent months at Parndana
Date/Time
CST
Temp

°C
Wind Pressure Rain
since 9am
mm
Weather Cloud Vis
km
Sea
Height
m
Swell
Dir
 
Speed
knots
Gust
knots
hPa Trend Height
m
Period
s
Dir
30/09:30am 12.2 NNW 12 18 - - 0.0 - - - - - - -
30/09:00am 11.7 NNW 12 16 - - 0.2 - - - - - - -
30/08:30am 11.1 NNW 12 16 - - 0.2 - - - - - - -
30/08:00am 10.5 NNW 15 21 - - 0.2 - - - - - - -
30/07:30am 9.8 NNW 12 15 - - 0.2 - - - - - - -
30/07:00am 9.5 N 11 16 - - 0.2 - - - - - - -
30/06:30am 10.0 NNW 14 18 - - 0.2 - - - - - - -
30/06:00am 10.5 N 10 15 - - 0.2 - - - - - - -
30/05:30am 10.3 N 10 14 - - 0.2 - - - - - - -
30/05:00am 10.1 N 11 14 - - 0.2 - - - - - - -
30/04:30am 10.2 N 11 16 - - 0.2 - - - - - - -
30/04:00am 10.5 N 12 17 - - 0.2 - - - - - - -
30/03:30am 10.6 NNW 14 19 - - 0.2 - - - - - - -
30/03:09am 10.8 NNW 16 27 - - 0.2 - - - - - - -
30/03:00am 10.9 NNW 19 27 - - 0.2 - - - - - - -
30/02:30am 10.8 NNW 16 22 - - 0.2 - - - - - - -
30/02:00am 10.6 NNW 16 22 - - 0.2 - - - - - - -
30/01:30am 10.8 NNW 15 21 - - 0.2 - - - - - - -
30/01:00am 10.9 NNW 14 21 - - 0.2 - - - - - - -
30/12:30am 10.8 NNW 12 17 - - 0.2 - - - - - - -
30/12:00am 10.6 N 9 14 - - 0.2 - - - - - - -
 
Date/Time
CST
Temp

°C
Wind Pressure Rain
since 9am
mm
Weather Cloud Vis
km
Sea
Height
m
Swell
Dir
 
Speed
knots
Gust
knots
hPa Trend Height
m
Period
s
Dir
29/11:30pm 10.1 N 11 14 - - 0.2 - - - - - - -
29/11:00pm 10.3 N 11 14 - - 0.2 - - - - - - -
29/10:30pm 10.2 N 9 11 - - 0.2 - - - - - - -
29/10:00pm 10.5 N 11 16 - - 0.2 - - - - - - -
29/09:30pm 10.5 NNW 15 21 - - 0.2 - - - - - - -
29/09:00pm 10.4 N 15 23 - - 0.2 Recent precip. - - - - - -
29/08:30pm 10.3 N 15 21 - - 0.2 - - - - - - -
29/08:00pm 10.4 N 14 19 - - 0.0 - - - - - - -
29/07:30pm 10.1 N 13 19 - - 0.0 - - - - - - -
29/07:00pm 9.9 N 11 14 - - 0.0 - - - - - - -
29/06:30pm 9.5 N 11 15 - - 0.0 - - - - - - -
29/06:00pm 9.9 N 12 17 - - 0.0 - - - - - - -
29/05:30pm 10.2 N 12 18 - - 0.0 - - - - - - -
29/05:00pm 10.6 N 13 19 - - 0.0 - - - - - - -
29/04:30pm 10.8 N 15 24 - - 0.0 - - - - - - -
29/04:00pm 11.0 NNW 15 23 - - 0.0 - - - - - - -
29/03:30pm 10.9 NNW 18 26 - - 0.0 - - - - - - -
29/03:00pm 11.1 NNW 17 28 - - 0.0 - - - - - - -
29/02:43pm 11.4 NNW 17 31 - - 0.0 - - - - - - -
29/02:30pm 11.5 NNW 18 27 - - 0.0 - - - - - - -
29/02:00pm 11.6 NNW 19 30 - - 0.0 - - - - - - -
29/01:30pm 11.1 NNW 17 28 - - 0.0 - - - - - - -
29/01:20pm 11.1 NNW 16 26 - - 0.0 - - - - - - -
29/01:00pm 10.9 NNW 14 21 - - 0.0 - - - - - - -
29/12:36pm 11.3 NNW 16 27 - - 0.0 - - - - - - -
29/12:30pm 11.2 NNW 16 24 - - 0.0 - - - - - - -
29/12:19pm 11.3 NNW 15 25 - - 0.0 - - - - - - -
29/12:00pm 11.1 N 13 21 - - 0.0 - - - - - - -
29/11:30am 10.9 N 12 19 - - 0.0 - - - - - - -
29/11:00am 10.2 N 10 14 - - 0.0 - - - - - - -
29/10:30am 10.0 N 10 14 - - 0.0 - - - - - - -
29/10:00am 10.1 N 11 16 - - 0.0 - - - - - - -
29/09:30am 10.1 N 10 14 - - 0.0 - - - - - - -
29/09:00am 9.7 N 8 12 - - 0.0 - - - - - - -
29/08:30am 9.3 N 8 11 - - 0.0 - - - - - - -
29/08:00am 9.1 N 8 10 - - 0.0 - - - - - - -
29/07:30am 8.8 N 7 10 - - 0.0 - - - - - - -
29/07:00am 8.4 N 7 9 - - 0.0 - - - - - - -
29/06:30am 8.2 N 7 9 - - 0.0 - - - - - - -
29/06:00am 8.2 N 9 11 - - 0.0 - - - - - - -
29/05:30am 8.7 N 10 13 - - 0.0 - - - - - - -
29/05:00am 8.3 N 7 11 - - 0.0 - - - - - - -
29/04:30am 7.5 NNE 4 5 - - 0.0 - - - - - - -
29/04:00am 7.8 NNE 6 7 - - 0.0 - - - - - - -
29/03:30am 6.6 NNE 5 7 - - 0.0 - - - - - - -
29/03:00am 7.0 N 5 6 - - 0.0 - - - - - - -
29/02:30am 6.9 N 5 7 - - 0.0 - - - - - - -
29/02:00am 6.5 N 4 5 - - 0.0 - - - - - - -
29/01:30am 6.8 N 5 7 - - 0.0 - - - - - - -
29/01:00am 6.3 NNE 6 8 - - 0.0 - - - - - - -
29/12:30am 5.6 N 4 5 - - 0.0 - - - - - - -
29/12:00am 5.9 N 4 5 - - 0.0 - - - - - - -
 
Date/Time
CST
Temp

°C
Wind Pressure Rain
since 9am
mm
Weather Cloud Vis
km
Sea
Height
m
Swell
Dir
 
Speed
knots
Gust
knots
hPa Trend Height
m
Period
s
Dir
28/11:30pm 6.2 N 4 5 - - 0.0 - - - - - - -
28/11:00pm 6.5 NNE 4 5 - - 0.0 - - - - - - -
28/10:30pm 6.5 NNE 4 5 - - 0.0 - - - - - - -
28/10:00pm 6.3 NNE 3 4 - - 0.0 - - - - - - -
28/09:30pm 6.8 N 5 6 - - 0.0 - - - - - - -
28/09:00pm 6.9 N 5 6 - - 0.0 - - - - - - -
28/08:30pm 6.8 N 4 5 - - 0.0 - - - - - - -
28/08:00pm 6.9 N 4 5 - - 0.0 - - - - - - -
28/07:30pm 7.6 N 4 4 - - 0.0 - - - - - - -
28/07:00pm 7.5 N 4 5 - - 0.0 - - - - - - -
28/06:30pm 7.9 NNW 3 4 - - 0.0 - - - - - - -
28/06:00pm 8.0 NW 5 6 - - 0.0 - - - - - - -
28/05:30pm 8.9 NNW 4 5 - - 0.0 - - - - - - -
28/05:00pm 9.5 NW 5 6 - - 0.0 - - - - - - -
28/04:30pm 10.5 NW 8 11 - - 0.0 - - - - - - -
28/04:00pm 10.8 WNW 5 6 - - 0.0 - - - - - - -
28/03:30pm 11.3 NW 6 9 - - 0.0 - - - - - - -
28/03:00pm 10.9 NW 7 9 - - 0.0 - - - - - - -
28/02:30pm 10.7 NW 9 12 - - 0.0 - - - - - - -
28/02:00pm 11.0 WNW 11 15 - - 0.0 - - - - - - -
28/01:30pm 11.8 NNW 9 13 - - 0.0 - - - - - - -
28/01:00pm 11.7 N 9 12 - - 0.0 - - - - - - -
28/12:30pm 11.9 N 6 9 - - 0.0 - - - - - - -
28/12:00pm 11.0 NW 6 9 - - 0.0 - - - - - - -
28/11:30am 11.1 WNW 5 8 - - 0.0 - - - - - - -
28/11:00am 10.3 NNW 5 12 - - 0.0 - - - - - - -
28/10:30am 10.4 N 5 7 - - 0.0 - - - - - - -
28/10:00am 9.9 NNW 5 7 - - 0.0 - - - - - - -
28/09:30am 9.7 N 5 6 - - 0.0 - - - - - - -
28/09:00am 8.5 NNW 4 5 - - 0.4 - - - - - - -
28/08:30am 6.3 NNW 5 6 - - 0.4 - - - - - - -
28/08:00am 5.4 N 5 5 - - 0.4 - - - - - - -
28/07:30am 5.1 NNW 6 7 - - 0.4 - - - - - - -
28/07:00am 4.8 NNW 6 7 - - 0.4 - - - - - - -
28/06:30am 3.2 NW 7 7 - - 0.4 - - - - - - -
28/06:00am 2.8 NW 7 8 - - 0.4 Recent precip. - - - - - -
28/05:30am 3.7 WNW 6 7 - - 0.4 - - - - - - -
28/05:00am 3.6 WNW 5 6 - - 0.2 - - - - - - -
28/04:30am 3.3 WNW 5 6 - - 0.2 - - - - - - -
28/04:00am 3.2 NW 4 5 - - 0.2 - - - - - - -
28/03:30am 3.3 NNW 2 3 - - 0.2 - - - - - - -
28/03:00am 4.7 WNW 3 3 - - 0.2 - - - - - - -
28/02:30am 5.2 NW 2 2 - - 0.2 - - - - - - -
28/02:00am 5.3 W 3 3 - - 0.2 - - - - - - -
28/01:30am 4.9 W 4 5 - - 0.2 - - - - - - -
28/01:00am 4.2 W 6 7 - - 0.2 - - - - - - -
28/12:30am 3.4 W 5 6 - - 0.2 - - - - - - -
28/12:00am 4.1 W 5 6 - - 0.2 - - - - - - -
 
Date/Time
CST
Temp

°C
Wind Pressure Rain
since 9am
mm
Weather Cloud Vis
km
Sea
Height
m
Swell
Dir
 
Speed
knots
Gust
knots
hPa Trend Height
m
Period
s
Dir
27/11:30pm 4.0 WNW 5 6 - - 0.2 - - - - - - -
27/11:00pm 4.8 WNW 4 4 - - 0.2 - - - - - - -
27/10:30pm 4.3 WNW 5 5 - - 0.2 - - - - - - -
27/10:00pm 4.9 W 6 7 - - 0.2 - - - - - - -
27/09:30pm 5.1 W 5 6 - - 0.2 - - - - - - -
27/09:00pm 5.3 WNW 5 5 - - 0.2 - - - - - - -
27/08:30pm 5.3 WNW 5 5 - - 0.2 - - - - - - -
27/08:00pm 5.7 WNW 5 5 - - 0.2 - - - - - - -
27/07:30pm 6.4 WNW 4 4 - - 0.2 - - - - - - -
27/07:00pm 6.7 WNW 4 5 - - 0.2 - - - - - - -
27/06:30pm 6.8 W 3 4 - - 0.2 - - - - - - -
27/06:00pm 7.2 WSW 5 6 - - 0.2 - - - - - - -
27/05:30pm 8.1 WSW 4 5 - - 0.2 - - - - - - -
27/05:00pm 9.7 SW 7 9 - - 0.2 - - - - - - -
27/04:30pm 10.5 SSW 8 11 - - 0.2 - - - - - - -
27/04:00pm 9.8 W 7 8 - - 0.2 - - - - - - -
27/03:30pm 9.9 SW 9 15 - - 0.2 - - - - - - -
27/03:00pm 10.5 SW 7 9 - - 0.0 - - - - - - -
27/02:30pm 10.7 SW 6 9 - - 0.0 - - - - - - -
27/02:00pm 10.8 WSW 8 13 - - 0.0 - - - - - - -
27/01:30pm 10.9 SW 6 9 - - 0.0 - - - - - - -
27/01:00pm 10.7 SW 4 6 - - 0.0 - - - - - - -
27/12:30pm 9.8 SSW 10 17 - - 0.0 - - - - - - -
27/12:00pm 11.6 WSW 8 11 - - 0.0 - - - - - - -
27/11:30am 10.3 WSW 7 10 - - 0.0 - - - - - - -
27/11:00am 10.6 WSW 9 13 - - 0.0 - - - - - - -
27/10:30am 10.3 WSW 7 10 - - 0.0 - - - - - - -
27/10:00am 9.9 W 7 9 - - 0.0 - - - - - - -

Other Formats:

Comma delimited format used in spreadsheet applications
http://www.bom.gov.au/fwo/IDS60701/IDS60701.94807.axf

JavaScript Object Notation format (JSON) in row-major order
http://www.bom.gov.au/fwo/IDS60701/IDS60701.94807.json